x

9439040 - Astoria, Or (asto3) Weather Station

1:54pm - Tue 16th Oct 2018 All times are PDT. -7 hours from GMT.

  • Wind
    5mph, 8mph gusts
  • Sea Temp 58°f
  • Air Temp 67°f
  • Sea Pressure 1022.6mb
  • 9439040 - Astoria, Or
  • 9439040 - Astoria, Or

More Historic Weather Station data

Upgrade to MSW Pro to gain access to the past 30 days of data for over 8000 Wavebouys and Weather Stations around the globe.

Join

Comparision Forecast

View Surf forecast
   
Tue 10/16 1:54pm 5 8 mph 1022.6mb 58f 67f
1:48pm 6 9 mph 1022.6mb 58f 66f
1:42pm 5 8 mph 1022.7mb 58f 67f
1:36pm 2 7 mph 1022.8mb 58f 68f
1:30pm 5 7 mph 1022.9mb 58f 66f
1:24pm 6 8 mph 1023mb 58f 66f
1:18pm 6 10 mph 1023.1mb 58f 65f
1:12pm 6 9 mph 1023.1mb 58f 65f
1:06pm 3 9 mph 1023.2mb 58f 65f
1:00pm 6 10 mph 1023.3mb 58f 64f
12:54pm 6 9 mph 1023.4mb 58f 64f
12:48pm 7 11 mph 1023.5mb 58f 64f
12:42pm 6 9 mph 1023.6mb 58f 64f
12:36pm 3 9 mph 1023.6mb 58f 64f
12:30pm 5 11 mph 1023.6mb 58f 63f
12:24pm 6 9 mph 1023.7mb 58f 63f
12:18pm 3 8 mph 1023.7mb 58f 63f
12:12pm 6 9 mph 1023.7mb 58f 63f
12:06pm 6 9 mph 1023.7mb 58f 63f
12:00pm 6 9 mph 1023.7mb 58f 62f
11:54am 8 11 mph 1023.7mb 58f 62f
11:48am 6 10 mph 1023.7mb 58f 62f
11:42am 2 11 mph 1023.7mb 58f 63f
11:36am 5 10 mph 1023.7mb 58f 62f
11:30am 2 6 mph 1023.7mb 58f 62f
11:24am 5 10 mph 1023.7mb 58f 61f
11:18am 2 8 mph 1023.7mb 58f 61f
11:12am 2 9 mph 1023.7mb 58f 60f
11:06am 7 11 mph 1023.7mb 58f 60f
11:00am 6 14 mph 1023.6mb 58f 59f
10:54am 6 13 mph 1023.6mb 58f 60f
10:48am 9 16 mph 1023.5mb 58f 59f
10:42am 11 16 mph 1023.6mb 58f 58f
10:36am 14 17 mph 1023.5mb 58f 58f
10:30am 15 18 mph 1023.4mb 58f 57f
10:24am 13 18 mph 1023.4mb 58f 57f
10:18am 14 21 mph 1023.4mb 58f 57f
10:12am 14 20 mph 1023.4mb 58f 56f
10:06am 13 16 mph 1023.5mb 58f 56f
10:00am 10 16 mph 1023.4mb 58f 56f
9:18am 7 13 mph 1023.4mb 58f 56f
9:12am 9 13 mph 1023.3mb 58f 55f
9:06am 5 13 mph 1023.3mb 58f 56f
9:00am 8 13 mph 1023.3mb 58f 55f
8:54am 7 13 mph 1023.3mb 58f 55f
8:48am 5 9 mph 1023.3mb 58f 55f
8:42am 6 9 mph 1023.4mb 58f 55f
8:36am 6 8 mph 1023.4mb 58f 55f
8:30am 5 9 mph 1023.4mb 58f 55f
8:24am 3 9 mph 1023.4mb 58f 55f
8:18am 6 10 mph 1023.3mb 59f 55f
8:12am 6 9 mph 1023.3mb 59f 55f
8:06am 7 11 mph 1023.2mb 59f 55f
8:00am 9 13 mph 1023.2mb 59f 55f
7:54am 9 11 mph 1023.1mb 59f 55f
7:48am 6 11 mph 1023.2mb 59f 55f
7:42am 3 8 mph 1023.1mb 59f 55f
7:36am 5 8 mph 1023.2mb 59f 55f
7:30am 3 7 mph 1023.2mb 59f 55f
7:24am 5 10 mph 1023.2mb 59f 55f
7:18am 5 9 mph 1023.2mb 59f 55f
7:12am 6 8 mph 1023.2mb 59f 55f
7:06am 6 8 mph 1023.3mb 59f 55f
7:00am 5 9 mph 1023.3mb 59f 56f
6:54am 7 10 mph 1023.3mb 59f 55f
6:48am 5 10 mph 1023.3mb 59f 55f
6:42am 8 13 mph 1023.4mb 59f 55f
6:36am 5 9 mph 1023.5mb 59f 55f
6:30am 6 11 mph 1023.4mb 59f 56f
6:24am 7 13 mph 1023.4mb 59f 56f
6:18am 8 13 mph 1023.3mb 59f 56f
6:12am 6 8 mph 1023.3mb 59f 56f
6:06am 3 8 mph 1023.4mb 59f 56f
6:00am 6 9 mph 1023.5mb 59f 56f
5:48am 5 10 mph 1023.4mb 59f 56f
5:42am 5 7 mph 1023.4mb 58f 56f
5:36am 1 3 mph 1023.4mb 58f 56f
5:30am 3 7 mph 1023.5mb 58f 56f
5:24am 1 9 mph 1023.5mb 58f 56f
5:18am 5 9 mph 1023.5mb 58f 56f
5:12am 6 9 mph 1023.5mb 58f 56f
5:06am 6 9 mph 1023.4mb 58f 56f
5:00am 5 9 mph 1023.4mb 58f 56f
4:54am 6 8 mph 1023.4mb 58f 56f
4:48am 3 7 mph 1023.4mb 58f 56f
4:42am 1 5 mph 1023.5mb 58f 56f
4:36am 1 5 mph 1023.6mb 58f 56f
4:30am 3 6 mph 1023.5mb 58f 56f
4:24am 5 8 mph 1023.5mb 58f 56f
4:18am 5 9 mph 1023.5mb 58f 56f
4:12am 6 8 mph 1023.5mb 58f 56f
4:06am 7 9 mph 1023.5mb 58f 56f
4:00am 3 7 mph 1023.5mb 58f 56f
3:54am 6 8 mph 1023.5mb 58f 56f
3:48am 3 6 mph 1023.5mb 58f 56f
3:42am 5 6 mph 1023.5mb 58f 56f
3:36am 2 6 mph 1023.5mb 58f 56f
3:30am 2 7 mph 1023.5mb 58f 56f
3:24am 6 10 mph 1023.5mb 58f 56f
3:18am 6 10 mph 1023.5mb 58f 56f
3:12am 3 7 mph 1023.6mb 58f 56f
3:06am 6 9 mph 1023.5mb 58f 57f
3:00am 3 6 mph 1023.4mb 58f 56f
2:54am 5 9 mph 1023.4mb 58f 56f
2:48am 6 10 mph 1023.4mb 58f 56f
2:42am 6 8 mph 1023.4mb 58f 56f
2:36am 6 11 mph 1023.5mb 58f 56f
2:30am 7 10 mph 1023.4mb 58f 57f
2:24am 7 10 mph 1023.4mb 58f 57f
2:18am 6 9 mph 1023.3mb 58f 57f
2:12am 6 10 mph 1023.3mb 58f 57f
2:06am 5 8 mph 1023.3mb 58f 58f
2:00am 3 7 mph 1023.3mb 58f 58f
1:54am 5 7 mph 1023.3mb 58f 57f
1:48am 5 7 mph 1023.4mb 58f 57f
1:42am 5 8 mph 1023.4mb 58f 58f
1:36am 3 7 mph 1023.3mb 58f 57f
1:30am 6 9 mph 1023.3mb 58f 58f
1:24am 6 11 mph 1023.3mb 58f 58f
1:18am 1 7 mph 1023.4mb 58f 58f
1:12am 5 9 mph 1023.4mb 58f 58f
1:06am 5 9 mph 1023.4mb 58f 58f
1:00am 5 7 mph 1023.4mb 58f 58f
12:18am 5 10 mph 1023.4mb 58f 59f
12:12am 8 11 mph 1023.4mb 58f 59f
12:06am 7 13 mph 1023.3mb 58f 60f
12:00am 9 11 mph 1023.3mb 58f 60f
Mon 10/15 11:48pm 10 18 mph 1023.3mb 58f 60f
11:42pm 13 18 mph 1023.3mb 58f 60f
11:36pm 8 14 mph 1023.3mb 58f 60f